createdAt,value
2018-12-03T00:00:55.814Z,99.99
2018-12-03T00:01:55.828Z,99.99
2018-12-03T00:02:55.853Z,99.99
2018-12-03T00:03:55.867Z,99.99
2018-12-03T00:04:55.880Z,99.99
2018-12-03T00:05:55.895Z,99.99
2018-12-03T00:06:55.920Z,99.99
2018-12-03T00:07:55.934Z,99.99
2018-12-03T00:08:55.947Z,99.99
2018-12-03T00:09:55.961Z,99.99
2018-12-03T00:10:55.999Z,99.99
2018-12-03T00:11:56.003Z,99.99
2018-12-03T00:12:56.014Z,99.99
2018-12-03T00:13:56.029Z,99.99
2018-12-03T00:14:56.053Z,99.99
2018-12-03T00:15:56.067Z,99.99
2018-12-03T00:16:56.134Z,99.99
2018-12-03T00:17:56.095Z,99.99
2018-12-03T00:18:56.120Z,99.99
2018-12-03T00:19:56.134Z,99.99
2018-12-03T00:20:56.147Z,99.99
2018-12-03T00:21:56.160Z,99.99
2018-12-03T00:22:56.176Z,99.99
2018-12-03T00:23:56.200Z,99.99
2018-12-03T00:24:56.215Z,99.99
2018-12-03T00:25:56.228Z,99.99
2018-12-03T00:26:56.253Z,99.99
2018-12-03T00:27:56.267Z,99.99
2018-12-03T00:28:56.280Z,99.99
2018-12-03T00:29:56.295Z,99.99
2018-12-03T00:30:56.320Z,99.99
2018-12-03T00:31:56.346Z,99.99
2018-12-03T00:32:56.348Z,99.99
2018-12-03T00:33:56.360Z,99.99
2018-12-03T00:34:56.386Z,99.99
2018-12-03T00:35:56.401Z,99.99
2018-12-03T00:36:56.414Z,99.99
2018-12-03T00:37:56.428Z,99.99
2018-12-03T00:38:56.453Z,99.99
2018-12-03T00:39:56.479Z,99.99
2018-12-03T00:40:56.482Z,99.99
2018-12-03T00:41:56.493Z,99.99
2018-12-03T00:42:56.520Z,99.99
2018-12-03T00:43:56.533Z,99.99
2018-12-03T00:44:56.546Z,99.99
2018-12-03T00:45:56.565Z,99.99
2018-12-03T00:46:56.586Z,99.99
2018-12-03T00:47:56.600Z,99.99
2018-12-03T00:48:56.614Z,99.99
2018-12-03T00:49:56.627Z,99.99
2018-12-03T00:50:56.652Z,99.99
2018-12-03T00:51:56.667Z,99.99
2018-12-03T00:52:56.680Z,99.99
2018-12-03T00:53:56.694Z,99.99
2018-12-03T00:54:56.721Z,99.99
2018-12-03T00:55:56.733Z,99.99
2018-12-03T00:56:56.747Z,99.99
2018-12-03T00:57:56.761Z,99.99
2018-12-03T00:58:56.788Z,99.99
2018-12-03T00:59:56.800Z,99.99
2018-12-03T01:00:56.813Z,99.99
2018-12-03T01:01:56.827Z,99.99
2018-12-03T01:02:56.854Z,99.99
2018-12-03T01:03:56.868Z,99.99
2018-12-03T01:04:56.881Z,99.99
2018-12-03T01:05:56.894Z,99.99
2018-12-03T01:06:56.919Z,99.99
2018-12-03T01:07:56.933Z,99.99
2018-12-03T01:08:56.947Z,99.99
2018-12-03T01:09:56.960Z,99.99
2018-12-03T01:10:56.975Z,99.99
2018-12-03T01:11:57.000Z,99.99
2018-12-03T01:12:57.014Z,99.99
2018-12-03T01:13:57.027Z,99.99
2018-12-03T01:14:57.041Z,99.99
2018-12-03T01:15:57.067Z,99.99
2018-12-03T01:16:57.081Z,99.99
2018-12-03T01:17:57.095Z,99.99
2018-12-03T01:18:57.107Z,99.99
2018-12-03T01:19:57.146Z,99.99
2018-12-03T01:20:57.147Z,99.99
2018-12-03T01:21:57.161Z,99.99
2018-12-03T01:22:57.175Z,99.99
2018-12-03T01:23:57.201Z,99.99
2018-12-03T01:24:57.213Z,99.99
2018-12-03T01:25:57.227Z,99.99
2018-12-03T01:26:57.244Z,99.99
2018-12-03T01:27:57.266Z,99.99
2018-12-03T01:28:57.280Z,99.99
2018-12-03T01:29:57.293Z,99.99
2018-12-03T01:30:57.319Z,99.99
2018-12-03T01:31:57.334Z,99.99
2018-12-03T01:32:57.346Z,99.99
2018-12-03T01:33:57.360Z,99.99
2018-12-03T01:34:57.388Z,99.99
2018-12-03T01:35:57.399Z,99.99
2018-12-03T01:36:57.413Z,99.99
2018-12-03T01:37:57.426Z,99.99
2018-12-03T01:38:57.453Z,99.99
2018-12-03T01:39:57.470Z,99.99
2018-12-03T01:40:57.492Z,99.99
2018-12-03T01:41:57.493Z,99.99
2018-12-03T01:42:57.521Z,99.99
2018-12-03T01:43:57.534Z,99.99
2018-12-03T01:44:57.546Z,99.99
2018-12-03T01:45:57.576Z,99.99
2018-12-03T01:46:57.586Z,99.99
2018-12-03T01:47:57.600Z,99.99
2018-12-03T01:48:57.631Z,99.99
2018-12-03T01:49:57.639Z,99.99
2018-12-03T01:50:57.653Z,99.99
2018-12-03T01:51:57.666Z,99.99
2018-12-03T01:52:57.682Z,99.99
2018-12-03T01:53:57.706Z,99.99
2018-12-03T01:54:57.719Z,99.99
2018-12-03T01:55:57.734Z,99.99
2018-12-03T01:56:57.759Z,99.99
2018-12-03T01:57:57.772Z,99.99
2018-12-03T01:58:57.789Z,99.99
2018-12-03T01:59:57.800Z,99.99
2018-12-03T02:00:57.825Z,99.99
2018-12-03T02:01:57.844Z,99.99
2018-12-03T02:02:57.852Z,99.99
2018-12-03T02:03:57.879Z,99.99
2018-12-03T02:04:57.895Z,99.99
2018-12-03T02:05:57.905Z,99.99
2018-12-03T02:06:57.932Z,99.99
2018-12-03T02:07:57.946Z,99.99
2018-12-03T02:08:57.972Z,99.99
2018-12-03T02:09:57.974Z,99.99
2018-12-03T02:10:57.999Z,99.99
2018-12-03T02:11:58.012Z,99.99
2018-12-03T02:12:58.078Z,99.99
2018-12-03T02:13:58.052Z,99.99
2018-12-03T02:14:58.064Z,99.99
2018-12-03T02:15:58.079Z,99.99
2018-12-03T02:16:58.106Z,99.99
2018-12-03T02:17:58.118Z,99.99
2018-12-03T02:18:58.136Z,99.99
2018-12-03T02:19:58.145Z,99.99
2018-12-03T02:20:58.170Z,99.99
2018-12-03T02:21:58.188Z,99.99
2018-12-03T02:22:58.197Z,99.99
2018-12-03T02:23:58.223Z,99.99
2018-12-03T02:24:58.238Z,99.99
2018-12-03T02:25:58.251Z,99.99
2018-12-03T02:26:58.277Z,99.99
2018-12-03T02:27:58.290Z,99.99
2018-12-03T02:28:58.304Z,99.99
2018-12-03T02:29:58.330Z,99.99
2018-12-03T02:30:58.344Z,99.99
2018-12-03T02:31:58.364Z,99.99
2018-12-03T02:32:58.371Z,99.99
2018-12-03T02:33:58.397Z,99.99
2018-12-03T02:34:58.410Z,99.99
2018-12-03T02:35:58.432Z,99.99
2018-12-03T02:36:58.450Z,99.99
2018-12-03T02:37:58.464Z,99.99
2018-12-03T02:38:58.478Z,99.99
2018-12-03T02:39:58.504Z,99.99
2018-12-03T02:40:58.521Z,99.99
2018-12-03T02:41:58.532Z,99.99
2018-12-03T02:42:58.558Z,99.99
2018-12-03T02:43:58.571Z,99.99
2018-12-03T02:44:58.583Z,99.99
2018-12-03T02:45:58.597Z,99.99
2018-12-03T02:46:58.621Z,99.99
2018-12-03T02:47:58.637Z,99.99
2018-12-03T02:48:58.649Z,99.99
2018-12-03T02:49:58.675Z,99.99
2018-12-03T02:50:58.693Z,99.99
2018-12-03T02:51:58.704Z,99.99
2018-12-03T02:52:58.731Z,99.99
2018-12-03T02:53:58.743Z,99.99
2018-12-03T02:54:58.755Z,99.99
2018-12-03T02:55:58.781Z,99.99
2018-12-03T02:56:58.795Z,99.99
2018-12-03T02:57:58.809Z,99.99
2018-12-03T02:58:58.835Z,99.99
2018-12-03T02:59:58.848Z,99.99
2018-12-03T03:00:58.867Z,99.99
2018-12-03T03:01:58.889Z,99.99
2018-12-03T03:02:58.902Z,99.99
2018-12-03T03:03:58.917Z,99.99
2018-12-03T03:04:58.988Z,99.99
2018-12-03T03:05:58.955Z,99.99
2018-12-03T03:06:58.968Z,99.99
2018-12-03T03:07:58.982Z,99.99
2018-12-03T03:08:59.012Z,99.99
2018-12-03T03:09:59.020Z,99.99
2018-12-03T03:10:59.034Z,99.99
2018-12-03T03:11:59.067Z,99.99
2018-12-03T03:12:59.074Z,99.99
2018-12-03T03:13:59.088Z,99.99
2018-12-03T03:14:59.114Z,99.99
2018-12-03T03:15:59.129Z,99.99
2018-12-03T03:16:59.144Z,99.99
2018-12-03T03:17:59.170Z,99.99
2018-12-03T03:18:59.180Z,99.99
2018-12-03T03:19:59.197Z,99.99
2018-12-03T03:20:59.222Z,99.99
2018-12-03T03:21:59.234Z,99.99
2018-12-03T03:22:59.247Z,99.99
2018-12-03T03:23:59.273Z,99.99
2018-12-03T03:24:59.287Z,99.99
2018-12-03T03:25:59.302Z,99.99
2018-12-03T03:26:59.326Z,99.99
2018-12-03T03:27:59.340Z,99.99
2018-12-03T03:28:59.353Z,99.99
2018-12-03T03:29:59.369Z,99.99
2018-12-03T03:30:59.408Z,99.99
2018-12-03T03:31:59.415Z,99.99
2018-12-03T03:32:59.421Z,99.99
2018-12-03T03:33:59.445Z,99.99
2018-12-03T03:34:59.460Z,99.99
2018-12-03T03:35:59.538Z,99.99
2018-12-03T03:36:59.499Z,99.99
2018-12-03T03:37:59.513Z,99.99
2018-12-03T03:38:59.539Z,99.99
2018-12-03T03:39:59.554Z,99.99
2018-12-03T03:40:59.568Z,99.99
2018-12-03T03:41:59.579Z,99.99
2018-12-03T03:42:59.605Z,99.99
2018-12-03T03:43:59.621Z,99.99
2018-12-03T03:44:59.632Z,99.99
2018-12-03T03:45:59.657Z,99.99
2018-12-03T03:46:59.671Z,99.99
2018-12-03T03:47:59.685Z,99.99
2018-12-03T03:48:59.711Z,99.99
2018-12-03T03:49:59.725Z,99.99
2018-12-03T03:50:59.738Z,99.99
2018-12-03T03:51:59.753Z,99.99
2018-12-03T03:52:59.789Z,99.99
2018-12-03T03:53:59.790Z,99.99
2018-12-03T03:54:59.817Z,99.99
2018-12-03T03:55:59.831Z,99.99
2018-12-03T03:56:59.861Z,99.99
2018-12-03T03:57:59.858Z,99.99
2018-12-03T03:58:59.885Z,99.99
2018-12-03T03:59:59.896Z,99.99
2018-12-03T04:00:59.914Z,99.99
2018-12-03T04:01:59.945Z,99.99
2018-12-03T04:02:59.951Z,99.99
2018-12-03T04:03:59.966Z,99.99
2018-12-03T04:04:59.992Z,99.99
2018-12-03T04:06:00.016Z,99.99
2018-12-03T04:07:00.018Z,99.99
2018-12-03T04:08:00.045Z,99.99
2018-12-03T04:09:00.057Z,99.99
2018-12-03T04:10:00.073Z,99.99
2018-12-03T04:11:00.097Z,99.99
2018-12-03T04:12:00.110Z,99.99
2018-12-03T04:13:00.124Z,99.99
2018-12-03T04:14:00.138Z,99.99
2018-12-03T04:15:00.163Z,99.99
2018-12-03T04:16:00.178Z,99.99
2018-12-03T04:17:00.190Z,99.99
2018-12-03T04:18:00.216Z,99.99
2018-12-03T04:19:00.231Z,99.99
2018-12-03T04:20:00.243Z,99.99
2018-12-03T04:21:00.269Z,99.99
2018-12-03T04:22:00.284Z,99.99
2018-12-03T04:23:00.348Z,99.99
2018-12-03T04:24:00.322Z,99.99
2018-12-03T04:25:00.336Z,99.99
2018-12-03T04:26:00.361Z,99.99
2018-12-03T04:27:00.375Z,99.99
2018-12-03T04:28:00.392Z,99.99
2018-12-03T04:29:00.402Z,99.99
2018-12-03T04:30:00.428Z,99.99
2018-12-03T04:31:00.442Z,99.99
2018-12-03T04:32:00.457Z,99.99
2018-12-03T04:33:00.470Z,99.99
2018-12-03T04:34:00.496Z,99.99
2018-12-03T04:35:00.510Z,99.99
2018-12-03T04:36:00.526Z,99.99
2018-12-03T04:37:00.553Z,99.99
2018-12-03T04:38:00.565Z,99.99
2018-12-03T04:39:00.576Z,99.99
2018-12-03T04:40:00.603Z,99.99
2018-12-03T04:41:00.616Z,99.99
2018-12-03T04:42:00.630Z,99.99
2018-12-03T04:43:00.657Z,99.99
2018-12-03T04:44:00.668Z,99.99
2018-12-03T04:45:00.738Z,99.99
2018-12-03T04:46:00.711Z,99.99
2018-12-03T04:47:00.723Z,99.99
2018-12-03T04:48:00.735Z,99.99
2018-12-03T04:49:00.751Z,99.99
2018-12-03T04:50:00.775Z,99.99
2018-12-03T04:51:00.789Z,99.99
2018-12-03T04:52:00.801Z,99.99
2018-12-03T04:53:00.829Z,99.99
2018-12-03T04:54:00.844Z,99.99
2018-12-03T04:55:00.855Z,99.99
2018-12-03T04:56:00.882Z,99.99
2018-12-03T04:57:00.896Z,99.99
2018-12-03T04:58:00.907Z,99.99
2018-12-03T04:59:00.935Z,99.99
2018-12-03T05:00:00.947Z,99.99
2018-12-03T05:01:00.974Z,99.99
2018-12-03T05:02:00.987Z,99.99
2018-12-03T05:03:01.001Z,99.99
2018-12-03T05:04:01.014Z,99.99
2018-12-03T05:05:01.040Z,99.99
2018-12-03T05:06:01.054Z,99.99
2018-12-03T05:07:01.083Z,99.99
2018-12-03T05:08:01.081Z,99.99
2018-12-03T05:09:01.107Z,99.99
2018-12-03T05:10:01.120Z,99.99
2018-12-03T05:11:01.140Z,99.99
2018-12-03T05:12:01.167Z,99.99
2018-12-03T05:13:01.174Z,99.99
2018-12-03T05:14:01.188Z,99.99
2018-12-03T05:15:01.217Z,99.99
2018-12-03T05:16:01.227Z,99.99
2018-12-03T05:17:01.242Z,99.99
2018-12-03T05:18:01.266Z,99.99
2018-12-03T05:19:01.280Z,99.99
2018-12-03T05:20:01.296Z,99.99
2018-12-03T05:21:01.321Z,99.99
2018-12-03T05:22:01.334Z,99.99
2018-12-03T05:23:01.348Z,99.99
2018-12-03T05:24:04.328Z,99.99
2018-12-03T05:25:01.386Z,99.99
2018-12-03T05:26:01.402Z,99.99
2018-12-03T05:27:01.413Z,99.99
2018-12-03T05:28:01.453Z,99.99
2018-12-03T05:29:01.454Z,99.99
2018-12-03T05:30:01.487Z,99.99
2018-12-03T05:31:01.493Z,99.99
2018-12-03T05:32:01.507Z,99.99
2018-12-03T05:33:01.519Z,99.99
2018-12-03T05:34:01.546Z,99.99
2018-12-03T05:35:01.560Z,99.99
2018-12-03T05:36:01.573Z,99.99
2018-12-03T05:37:01.598Z,99.99
2018-12-03T05:38:01.612Z,99.99
2018-12-03T05:39:01.626Z,99.99
2018-12-03T05:40:01.642Z,99.99
2018-12-03T05:41:01.666Z,99.99
2018-12-03T05:42:01.684Z,99.99
2018-12-03T05:43:01.696Z,99.99
2018-12-03T05:44:01.721Z,99.99
2018-12-03T05:45:01.736Z,99.99
2018-12-03T05:46:01.747Z,99.99
2018-12-03T05:47:01.774Z,99.99
2018-12-03T05:48:01.799Z,99.99
2018-12-03T05:49:01.799Z,99.99
2018-12-03T05:50:01.826Z,99.99
2018-12-03T05:51:01.845Z,99.99
2018-12-03T05:52:01.853Z,99.99
2018-12-03T05:53:01.878Z,99.99
2018-12-03T05:54:01.893Z,99.99
2018-12-03T05:55:01.906Z,99.99
2018-12-03T05:56:01.932Z,99.99
2018-12-03T05:57:01.948Z,99.99
2018-12-03T05:58:01.959Z,99.99
2018-12-03T05:59:01.986Z,99.99
2018-12-03T06:00:01.998Z,99.99
2018-12-03T06:01:02.011Z,99.99
2018-12-03T06:02:02.037Z,99.99
2018-12-03T06:03:02.051Z,99.99
2018-12-03T06:04:02.065Z,99.99
2018-12-03T06:05:02.078Z,99.99
2018-12-03T06:06:02.106Z,99.99
2018-12-03T06:07:02.118Z,99.99
2018-12-03T06:08:02.133Z,99.99
2018-12-03T06:09:02.159Z,99.99
2018-12-03T06:10:02.172Z,99.99
2018-12-03T06:11:02.185Z,99.99
2018-12-03T06:12:02.211Z,99.99
2018-12-03T06:13:02.224Z,99.99
2018-12-03T06:14:02.237Z,99.99
2018-12-03T06:15:02.263Z,99.99
2018-12-03T06:16:02.276Z,99.99
2018-12-03T06:17:02.302Z,99.99
2018-12-03T06:18:02.305Z,99.99
2018-12-03T06:19:02.330Z,99.99
2018-12-03T06:20:02.345Z,99.99
2018-12-03T06:21:02.358Z,99.99
2018-12-03T06:22:02.383Z,99.99
2018-12-03T06:23:02.409Z,99.99
2018-12-03T06:24:02.413Z,99.99
2018-12-03T06:25:02.437Z,99.99
2018-12-03T06:26:02.450Z,99.99
2018-12-03T06:27:02.464Z,99.99
2018-12-03T06:28:02.476Z,99.99
2018-12-03T06:29:02.504Z,99.99
2018-12-03T06:30:02.517Z,99.99
2018-12-03T06:31:02.529Z,99.99
2018-12-03T06:32:02.557Z,99.99
2018-12-03T06:33:02.569Z,99.99
2018-12-03T06:34:02.583Z,99.99
2018-12-03T06:35:02.608Z,99.99
2018-12-03T06:36:02.623Z,99.99
2018-12-03T06:37:02.635Z,99.99
2018-12-03T06:38:02.652Z,99.99
2018-12-03T06:39:02.678Z,99.99
2018-12-03T06:40:02.689Z,99.99
2018-12-03T06:41:02.706Z,99.99
2018-12-03T06:42:02.730Z,99.99
2018-12-03T06:43:02.755Z,99.99
2018-12-03T06:44:02.756Z,99.99
2018-12-03T06:45:02.774Z,99.99
2018-12-03T06:46:02.796Z,99.99
2018-12-03T06:47:02.809Z,99.99
2018-12-03T06:48:02.822Z,99.99
2018-12-03T06:49:02.849Z,99.99
2018-12-03T06:50:02.863Z,99.99
2018-12-03T06:51:02.879Z,99.99
2018-12-03T06:52:02.901Z,99.99
2018-12-03T06:53:02.919Z,99.99
2018-12-03T06:54:02.929Z,99.99
2018-12-03T06:55:02.954Z,99.99
2018-12-03T06:56:02.972Z,99.99
2018-12-03T06:57:02.982Z,99.99
2018-12-03T06:58:03.001Z,99.99
2018-12-03T06:59:03.022Z,99.99
2018-12-03T07:00:03.035Z,99.99
2018-12-03T07:01:03.049Z,99.99
2018-12-03T07:02:03.075Z,99.99
2018-12-03T07:03:03.090Z,99.99
2018-12-03T07:04:03.103Z,99.99
2018-12-03T07:05:03.116Z,99.99
2018-12-03T07:06:03.141Z,99.99
2018-12-03T07:07:03.155Z,99.99
2018-12-03T07:08:03.171Z,99.99
2018-12-03T07:09:03.194Z,99.99
2018-12-03T07:10:03.210Z,99.99
2018-12-03T07:11:03.223Z,99.99
2018-12-03T07:12:03.249Z,99.99
2018-12-03T07:13:03.262Z,99.99
2018-12-03T07:14:03.276Z,99.99
2018-12-03T07:15:03.302Z,99.99
2018-12-03T07:16:03.315Z,99.99
2018-12-03T07:17:03.328Z,99.99
2018-12-03T07:18:03.342Z,99.99
2018-12-03T07:19:03.368Z,99.99
2018-12-03T07:20:03.381Z,99.99
2018-12-03T07:21:03.395Z,99.99
2018-12-03T07:22:03.421Z,99.99
2018-12-03T07:23:03.436Z,99.99
2018-12-03T07:24:03.448Z,99.99
2018-12-03T07:25:03.468Z,99.99
2018-12-03T07:26:03.532Z,99.99
2018-12-03T07:27:03.501Z,99.99
2018-12-03T07:28:03.514Z,99.99
2018-12-03T07:29:03.542Z,99.99
2018-12-03T07:30:03.556Z,99.99
2018-12-03T07:31:03.567Z,99.99
2018-12-03T07:32:03.593Z,99.99
2018-12-03T07:33:03.607Z,99.99
2018-12-03T07:34:03.622Z,99.99
2018-12-03T07:35:03.646Z,99.99
2018-12-03T07:36:03.662Z,99.99
2018-12-03T07:37:03.673Z,99.99
2018-12-03T07:38:03.687Z,99.99
2018-12-03T07:39:03.714Z,99.99
2018-12-03T07:40:03.727Z,99.99
2018-12-03T07:41:03.743Z,99.99
2018-12-03T07:42:03.768Z,99.99
2018-12-03T07:43:03.780Z,99.99
2018-12-03T07:44:03.805Z,99.99
2018-12-03T07:45:03.819Z,99.99
2018-12-03T07:46:03.832Z,99.99
2018-12-03T07:47:03.847Z,99.99
2018-12-03T07:48:03.861Z,99.99
2018-12-03T07:49:03.886Z,99.99
2018-12-03T07:50:03.901Z,99.99
2018-12-03T07:51:03.913Z,99.99
2018-12-03T07:52:03.939Z,99.99
2018-12-03T07:53:03.955Z,99.99
2018-12-03T07:54:03.966Z,99.99
2018-12-03T07:55:03.992Z,99.99
2018-12-03T07:56:04.007Z,99.99
2018-12-03T07:57:04.019Z,99.99
2018-12-03T07:58:04.046Z,99.99
2018-12-03T07:59:04.066Z,99.99
2018-12-03T08:00:04.074Z,99.99
2018-12-03T08:01:04.086Z,99.99
2018-12-03T08:02:04.112Z,99.99
2018-12-03T08:03:04.125Z,99.99
2018-12-03T08:04:04.139Z,99.99
2018-12-03T08:05:04.166Z,99.99
2018-12-03T08:06:04.191Z,99.80
2018-12-03T08:07:04.193Z,99.32
2018-12-03T08:08:04.219Z,99.32
2018-12-03T08:09:04.232Z,99.22
2018-12-03T08:10:04.246Z,98.85
2018-12-03T08:11:04.271Z,98.75
2018-12-03T08:12:04.286Z,99.04
2018-12-03T08:13:04.300Z,98.65
2018-12-03T08:14:04.313Z,98.46
2018-12-03T08:15:04.338Z,98.46
2018-12-03T08:16:04.356Z,98.56
2018-12-03T08:17:04.364Z,98.56
2018-12-03T08:18:04.390Z,98.56
2018-12-03T08:19:04.407Z,98.41
2018-12-03T08:20:04.417Z,98.46
2018-12-03T08:21:04.434Z,98.75
2018-12-03T08:22:04.459Z,98.65
2018-12-03T08:23:04.472Z,98.46
2018-12-03T08:24:04.485Z,98.65
2018-12-03T08:25:04.511Z,98.41
2018-12-03T08:26:04.524Z,98.46
2018-12-03T08:27:04.539Z,98.56
2018-12-03T08:28:04.553Z,98.75
2018-12-03T08:29:04.582Z,98.85
2018-12-03T08:30:04.591Z,98.56
2018-12-03T08:31:04.605Z,98.65
2018-12-03T08:32:04.635Z,98.75
2018-12-03T08:33:04.645Z,98.65
2018-12-03T08:34:04.658Z,98.65
2018-12-03T08:35:04.683Z,98.46
2018-12-03T08:36:04.699Z,98.65
2018-12-03T08:37:04.711Z,98.46
2018-12-03T08:38:04.737Z,98.46
2018-12-03T08:39:04.751Z,98.56
2018-12-03T08:40:04.764Z,98.56
2018-12-03T08:41:04.778Z,98.36
2018-12-03T08:42:04.803Z,98.56
2018-12-03T08:43:04.820Z,98.65
2018-12-03T08:44:04.830Z,98.46
2018-12-03T08:45:04.856Z,98.46
2018-12-03T08:46:04.870Z,98.56
2018-12-03T08:47:04.887Z,98.65
2018-12-03T08:48:04.911Z,98.36
2018-12-03T08:49:04.923Z,98.65
2018-12-03T08:50:04.938Z,98.56
2018-12-03T08:51:04.963Z,98.65
2018-12-03T08:52:04.979Z,98.75
2018-12-03T08:53:04.991Z,98.85
2018-12-03T08:54:05.017Z,98.65
2018-12-03T08:55:05.029Z,98.65
2018-12-03T08:56:05.043Z,98.85
2018-12-03T08:57:05.069Z,98.85
2018-12-03T08:58:05.082Z,98.65
2018-12-03T08:59:05.098Z,98.85
2018-12-03T09:00:05.113Z,98.65
2018-12-03T09:01:05.148Z,98.56
2018-12-03T09:02:05.151Z,98.65
2018-12-03T09:03:05.176Z,98.75
2018-12-03T09:04:05.193Z,98.46
2018-12-03T09:05:05.202Z,98.65
2018-12-03T09:06:05.232Z,98.75
2018-12-03T09:07:05.242Z,98.85
2018-12-03T09:08:05.256Z,98.65
2018-12-03T09:09:05.284Z,98.75
2018-12-03T09:10:05.295Z,98.85
2018-12-03T09:11:05.308Z,98.51
2018-12-03T09:12:05.335Z,98.90
2018-12-03T09:13:05.349Z,98.90
2018-12-03T09:14:05.376Z,98.90
2018-12-03T09:15:05.389Z,98.80
2018-12-03T09:16:05.401Z,98.90
2018-12-03T09:17:05.440Z,98.51
2018-12-03T09:18:05.443Z,98.90
2018-12-03T09:19:05.454Z,98.61
2018-12-03T09:20:05.480Z,98.70
2018-12-03T09:21:05.496Z,98.70
2018-12-03T09:22:05.508Z,98.80
2018-12-03T09:23:05.533Z,99.08
2018-12-03T09:24:05.547Z,98.99
2018-12-03T09:25:05.573Z,98.90
2018-12-03T09:26:05.590Z,98.90
2018-12-03T09:27:05.604Z,99.46
2018-12-03T09:28:05.626Z,99.37
2018-12-03T09:29:05.639Z,99.56
2018-12-03T09:30:05.665Z,99.56
2018-12-03T09:31:05.680Z,99.27
2018-12-03T09:32:05.693Z,99.18
2018-12-03T09:33:05.720Z,99.85
2018-12-03T09:34:05.736Z,99.66
2018-12-03T09:35:05.760Z,99.99
2018-12-03T09:36:05.772Z,99.99
2018-12-03T09:37:05.786Z,99.99
2018-12-03T09:38:05.811Z,99.99
2018-12-03T09:39:05.825Z,99.99
2018-12-03T09:40:05.840Z,99.66
2018-12-03T09:41:06.009Z,99.99
2018-12-03T09:42:05.878Z,99.99
2018-12-03T09:43:05.893Z,99.99
2018-12-03T09:44:05.920Z,99.99
2018-12-03T09:45:05.931Z,99.99
2018-12-03T09:46:05.957Z,99.99
2018-12-03T09:47:05.972Z,99.99
2018-12-03T09:48:05.985Z,99.99
2018-12-03T09:49:06.010Z,99.99
2018-12-03T09:50:06.024Z,99.99
2018-12-03T09:51:06.050Z,99.99
2018-12-03T09:52:06.062Z,99.99
2018-12-03T09:53:06.080Z,99.99
2018-12-03T09:54:06.105Z,99.99
2018-12-03T09:55:06.118Z,99.99
2018-12-03T09:56:06.130Z,99.99
2018-12-03T09:57:06.156Z,99.99
2018-12-03T09:58:06.170Z,99.99
2018-12-03T09:59:06.197Z,99.99
2018-12-03T10:00:06.209Z,99.99
2018-12-03T10:01:06.222Z,99.99
2018-12-03T10:02:06.249Z,99.99
2018-12-03T10:03:06.262Z,99.99
2018-12-03T10:04:06.289Z,99.99
2018-12-03T10:05:06.301Z,99.99
2018-12-03T10:06:06.316Z,99.99
2018-12-03T10:07:06.342Z,99.99
2018-12-03T10:08:06.355Z,99.99
2018-12-03T10:09:06.382Z,99.99
2018-12-03T10:10:06.395Z,99.99
2018-12-03T10:11:06.408Z,99.99
2018-12-03T10:12:06.433Z,99.99
2018-12-03T10:13:06.448Z,99.99
2018-12-03T10:14:06.462Z,99.99
2018-12-03T10:15:06.487Z,99.99
2018-12-03T10:16:06.501Z,99.99
2018-12-03T10:17:06.527Z,99.99
2018-12-03T10:18:06.541Z,99.99
2018-12-03T10:19:06.554Z,99.99
2018-12-03T10:20:06.580Z,99.99
2018-12-03T10:21:06.593Z,99.99
2018-12-03T10:22:06.619Z,99.99
2018-12-03T10:23:06.634Z,99.99
2018-12-03T10:24:06.646Z,99.99
2018-12-03T10:25:06.673Z,99.99
2018-12-03T10:26:06.686Z,99.99
2018-12-03T10:27:06.700Z,99.99
2018-12-03T10:28:06.727Z,99.99
2018-12-03T10:29:06.740Z,99.99
2018-12-03T10:30:06.766Z,99.99
2018-12-03T10:31:06.779Z,99.99
2018-12-03T10:32:06.793Z,99.99
2018-12-03T10:33:06.818Z,99.99
2018-12-03T10:34:06.832Z,99.99
2018-12-03T10:35:06.857Z,99.99
2018-12-03T10:36:06.872Z,99.99
2018-12-03T10:37:06.884Z,99.99
2018-12-03T10:38:06.911Z,99.99
2018-12-03T10:39:06.925Z,99.99
2018-12-03T10:40:06.954Z,99.99
2018-12-03T10:41:06.963Z,99.99
2018-12-03T10:42:06.982Z,99.99
2018-12-03T10:43:07.004Z,99.99
2018-12-03T10:44:07.017Z,99.99
2018-12-03T10:45:07.044Z,99.99
2018-12-03T10:46:07.057Z,99.99
2018-12-03T10:47:07.071Z,99.99
2018-12-03T10:48:07.096Z,99.99
2018-12-03T10:49:07.111Z,99.99
2018-12-03T10:50:07.137Z,99.99
2018-12-03T10:51:07.162Z,99.99
2018-12-03T10:52:07.176Z,99.99
2018-12-03T10:53:07.189Z,99.99
2018-12-03T10:54:07.203Z,99.99
2018-12-03T10:55:07.228Z,99.99
2018-12-03T10:56:07.243Z,99.99
2018-12-03T10:57:07.268Z,99.99
2018-12-03T10:58:07.294Z,99.99
2018-12-03T10:59:07.295Z,99.99
2018-12-03T11:00:07.321Z,99.99
2018-12-03T11:01:07.334Z,99.99
2018-12-03T11:02:07.360Z,99.99
2018-12-03T11:03:07.374Z,99.99
2018-12-03T11:04:07.388Z,99.99
2018-12-03T11:05:07.414Z,99.99
2018-12-03T11:06:07.427Z,99.99
2018-12-03T11:07:07.456Z,99.99
2018-12-03T11:08:07.466Z,99.99
2018-12-03T11:09:07.493Z,99.99
2018-12-03T11:10:07.507Z,99.99
2018-12-03T11:11:07.523Z,99.99
2018-12-03T11:12:07.546Z,99.99
2018-12-03T11:13:07.559Z,99.99
2018-12-03T11:14:07.586Z,99.99
2018-12-03T11:15:07.597Z,99.99
2018-12-03T11:16:07.624Z,99.99
2018-12-03T11:17:07.639Z,99.99
2018-12-03T11:18:07.667Z,99.99
2018-12-03T11:19:07.677Z,99.99
2018-12-03T11:20:07.704Z,99.99
2018-12-03T11:21:07.717Z,99.99
2018-12-03T11:22:07.731Z,99.99
2018-12-03T11:23:07.757Z,99.99
2018-12-03T11:24:07.771Z,99.99
2018-12-03T11:25:07.796Z,99.99
2018-12-03T11:26:07.810Z,99.99
2018-12-03T11:27:07.836Z,99.99
2018-12-03T11:28:07.849Z,99.99
2018-12-03T11:29:07.876Z,99.99
2018-12-03T11:30:07.889Z,99.99
2018-12-03T11:31:07.903Z,99.99
2018-12-03T11:32:07.931Z,99.99
2018-12-03T11:33:07.941Z,99.99
2018-12-03T11:34:07.969Z,99.99
2018-12-03T11:35:07.985Z,99.99
2018-12-03T11:36:08.009Z,99.99
2018-12-03T11:37:08.021Z,99.99
2018-12-03T11:38:08.038Z,99.99
2018-12-03T11:39:08.061Z,99.99
2018-12-03T11:40:08.074Z,99.99
2018-12-03T11:41:08.100Z,99.99
2018-12-03T11:42:08.114Z,99.99
2018-12-03T11:43:08.140Z,99.99
2018-12-03T11:44:08.155Z,99.99
2018-12-03T11:45:08.167Z,99.99
2018-12-03T11:46:08.194Z,99.99
2018-12-03T11:47:08.206Z,99.99
2018-12-03T11:48:08.232Z,99.99
2018-12-03T11:49:08.247Z,99.99
2018-12-03T11:50:08.272Z,99.99
2018-12-03T11:51:08.301Z,99.99
2018-12-03T11:52:08.311Z,99.99
2018-12-03T11:53:08.325Z,99.99
2018-12-03T11:54:08.339Z,99.99
2018-12-03T11:55:08.365Z,99.99
2018-12-03T11:56:08.377Z,99.99
2018-12-03T11:57:08.395Z,99.99
2018-12-03T11:58:08.417Z,99.99
2018-12-03T11:59:08.434Z,99.99
2018-12-03T12:00:08.458Z,99.99
2018-12-03T12:01:08.471Z,99.99
2018-12-03T12:02:08.497Z,99.99
2018-12-03T12:03:08.511Z,99.99
2018-12-03T12:04:08.524Z,99.99
2018-12-03T12:05:08.552Z,99.99
2018-12-03T12:06:08.564Z,99.99
2018-12-03T12:07:08.595Z,99.99
2018-12-03T12:08:08.602Z,99.99
2018-12-03T12:09:08.618Z,99.99
2018-12-03T12:10:08.642Z,99.99
2018-12-03T12:11:08.656Z,99.99
2018-12-03T12:12:08.695Z,99.99
2018-12-03T12:13:08.700Z,99.99
2018-12-03T12:14:08.712Z,99.99
2018-12-03T12:15:08.735Z,99.99
2018-12-03T12:16:08.750Z,99.99
2018-12-03T12:17:08.781Z,99.99
2018-12-03T12:18:08.788Z,99.99
2018-12-03T12:19:08.814Z,99.99
2018-12-03T12:20:08.829Z,99.99
2018-12-03T12:21:08.843Z,99.99
2018-12-03T12:22:08.867Z,99.99
2018-12-03T12:23:08.882Z,99.99
2018-12-03T12:24:08.907Z,99.99
2018-12-03T12:25:08.920Z,99.99
2018-12-03T12:26:08.946Z,99.99
2018-12-03T12:27:08.961Z,99.99
2018-12-03T12:28:08.987Z,99.99
2018-12-03T12:29:08.999Z,99.99
2018-12-03T12:30:09.015Z,99.99
2018-12-03T12:31:09.040Z,99.99
2018-12-03T12:32:09.052Z,99.99
2018-12-03T12:33:09.081Z,99.99
2018-12-03T12:34:09.092Z,99.99
2018-12-03T12:35:09.118Z,99.99
2018-12-03T12:36:09.131Z,99.99
2018-12-03T12:37:09.157Z,99.99
2018-12-03T12:38:09.171Z,99.99
2018-12-03T12:39:09.186Z,99.99
2018-12-03T12:40:09.210Z,99.99
2018-12-03T12:41:09.225Z,99.99
2018-12-03T12:42:09.251Z,99.99
2018-12-03T12:43:09.263Z,99.99
2018-12-03T12:44:09.289Z,99.99
2018-12-03T12:45:09.304Z,99.99
2018-12-03T12:46:09.330Z,99.99
2018-12-03T12:47:09.344Z,99.99
2018-12-03T12:48:09.370Z,99.99
2018-12-03T12:49:09.382Z,99.99
2018-12-03T12:50:09.396Z,99.99
2018-12-03T12:51:09.421Z,99.99
2018-12-03T12:52:09.436Z,99.99
2018-12-03T12:53:09.462Z,99.99